Etusivu
METAR-TAF:

METAR-TAF

Lentoasemat :

Pembrey, Wales

Leveyspiiri: 51-43N, Pituuspiiri: 004-22W, korkeus merenpinnasta: 3 m

Tämänhetkinen sää

Tämä raportti tehtiin 1 tunti ja 12 minuuttia sitten, kello 05.50 UTC
Tuuli 2 kn idästä/koillisesta
Lämpötila 1°C
Kosteus 93%
Ilmanpaine 1013 hPa
Näkyvyys: 9000 m

METAR: EGOP 170550Z AUTO 07002KT 9000 // SCT026/// SCT034/// 01/00 Q1013

Aika: 07:02 (07:02 UTC)


TAF: puuttuu

Säähavainnot ja -ennusteet yli 4000 lentoasemalta (METAR- ja TAF-raportit).

Käytössä olevat sääasemat on merkitty karttaan keltaisilla ja punaisilla pisteillä.

Aseta hiiri pisteen päälle nähdäksesi sääaseman nimen.

Klikkaa sitten nähdäksesi säähavainnot ja -ennusteet.

Kartan vaihtaminen: klikkaa mustalla rastilla varustettuja vihreitä pisteitä, niin voit zoomata sisään; viivalla varustettua vihreää pistettä, niin voit zoomata ulos tai vihreitä nuolia, niin pääset viereisille kartoille.


METAR-TAF: